createdAt,value
2022-12-25T00:01:08.598Z,98776.41
2022-12-25T00:03:36.235Z,98778.25
2022-12-25T00:06:03.663Z,98764.22
2022-12-25T00:08:30.133Z,98770.16
2022-12-25T00:10:58.210Z,98777.72
2022-12-25T00:13:24.865Z,98775.03
2022-12-25T00:15:51.316Z,98784.22
2022-12-25T00:18:17.738Z,98776.09
2022-12-25T00:20:44.279Z,98781.50
2022-12-25T00:23:10.702Z,98774.50
2022-12-25T00:25:40.412Z,98778.25
2022-12-25T00:28:06.835Z,98769.09
2022-12-25T00:30:33.306Z,98770.16
2022-12-25T00:32:59.716Z,98767.44
2022-12-25T00:35:26.092Z,98774.50
2022-12-25T00:37:52.479Z,98772.84
2022-12-25T00:40:18.909Z,98760.72
2022-12-25T00:42:45.301Z,98764.78
2022-12-25T00:45:11.760Z,98766.94
2022-12-25T00:47:38.216Z,98768.00
2022-12-25T00:50:05.363Z,98765.59
2022-12-25T00:52:32.388Z,98769.09
2022-12-25T00:54:58.738Z,98769.09
2022-12-25T00:57:25.117Z,98778.28
2022-12-25T00:59:51.574Z,98771.00
2022-12-25T01:02:24.110Z,98774.50
2022-12-25T01:04:52.561Z,98762.88
2022-12-25T01:07:20.681Z,98767.22
2022-12-25T01:10:06.651Z,98760.19
2022-12-25T01:12:34.939Z,98765.59
2022-12-25T01:15:01.526Z,98764.78
2022-12-25T01:17:27.891Z,98776.69
2022-12-25T01:19:54.267Z,98783.19
2022-12-25T01:22:20.652Z,98779.66
2022-12-25T01:24:47.105Z,98775.88
2022-12-25T01:27:13.812Z,98779.66
2022-12-25T01:29:40.226Z,98789.63
2022-12-25T01:32:06.934Z,98792.34
2022-12-25T01:34:33.819Z,98789.63
2022-12-25T01:37:00.413Z,98786.13
2022-12-25T01:39:27.014Z,98795.88
2022-12-25T01:41:53.477Z,98797.75
2022-12-25T01:44:19.891Z,98798.81
2022-12-25T01:46:46.327Z,98799.63
2022-12-25T01:49:16.541Z,98807.75
2022-12-25T01:51:48.074Z,98805.84
2022-12-25T01:54:30.648Z,98801.53
2022-12-25T01:57:00.999Z,98792.63
2022-12-25T01:59:28.394Z,98791.28
2022-12-25T02:01:55.957Z,98796.69
2022-12-25T02:04:38.646Z,98791.28
2022-12-25T02:07:13.085Z,98784.22
2022-12-25T02:09:39.951Z,98786.94
2022-12-25T02:12:08.980Z,98788.03
2022-12-25T02:14:37.375Z,98792.34
2022-12-25T02:17:36.276Z,98784.22
2022-12-25T02:20:20.947Z,98786.41
2022-12-25T02:23:05.122Z,98788.59
2022-12-25T02:26:01.190Z,98783.72
2022-12-25T02:28:46.529Z,98775.88
2022-12-25T02:31:18.315Z,98771.03
2022-12-25T02:34:13.718Z,98771.84
2022-12-25T02:36:51.735Z,98773.75
2022-12-25T02:39:44.379Z,98769.94
2022-12-25T02:42:58.064Z,98776.16
2022-12-25T02:45:49.578Z,98774.28
2022-12-25T02:53:19.713Z,98775.63
2022-12-25T02:57:43.597Z,98782.13
2022-12-25T02:59:48.695Z,98779.44
2022-12-25T03:02:58.891Z,98771.56
2022-12-25T03:06:40.982Z,98773.47
2022-12-25T03:16:55.639Z,98765.09
2022-12-25T03:24:08.909Z,98759.44
2022-12-25T03:42:07.340Z,98739.69
2022-12-25T03:44:14.438Z,98752.38
2022-12-25T03:45:05.681Z,98729.69
2022-12-25T03:48:02.967Z,98733.47
2022-12-25T03:51:12.485Z,98726.47
2022-12-25T03:54:07.082Z,98724.84
2022-12-25T03:56:53.880Z,98724.28
2022-12-25T03:59:41.211Z,98711.88
2022-12-25T04:02:26.655Z,98712.97
2022-12-25T04:05:11.798Z,98718.34
2022-12-25T04:07:57.714Z,98704.84
2022-12-25T04:10:42.867Z,98701.63
2022-12-25T04:13:28.187Z,98718.91
2022-12-25T04:16:13.526Z,98724.84
2022-12-25T04:18:58.925Z,98721.63
2022-12-25T04:21:44.172Z,98723.50
2022-12-25T04:24:29.447Z,98717.84
2022-12-25T04:27:15.299Z,98721.06
2022-12-25T04:30:00.261Z,98708.63
2022-12-25T04:32:45.432Z,98721.06
2022-12-25T04:35:30.380Z,98704.84
2022-12-25T04:37:57.018Z,98701.06
2022-12-25T04:40:23.550Z,98702.69
2022-12-25T04:42:51.368Z,98699.44
2022-12-25T04:45:18.129Z,98703.75
2022-12-25T04:47:44.566Z,98702.69
2022-12-25T04:50:11.745Z,98705.66
2022-12-25T04:52:40.443Z,98713.47
2022-12-25T04:55:07.579Z,98702.69
2022-12-25T04:57:34.286Z,98705.94
2022-12-25T05:00:00.915Z,98700.81
2022-12-25T05:02:27.496Z,98687.56
2022-12-25T05:04:54.008Z,98693.53
2022-12-25T05:07:20.421Z,98700.53
2022-12-25T05:09:46.867Z,98685.13
2022-12-25T05:12:13.590Z,98679.22
2022-12-25T05:14:40.156Z,98681.63
2022-12-25T05:17:07.893Z,98676.22
2022-12-25T05:19:34.929Z,98674.88
2022-12-25T05:22:01.609Z,98668.66
2022-12-25T05:24:28.586Z,98667.03
2022-12-25T05:26:55.047Z,98677.84
2022-12-25T05:29:21.716Z,98677.84
2022-12-25T05:31:48.190Z,98684.06
2022-12-25T05:34:14.675Z,98674.63
2022-12-25T05:36:41.120Z,98685.66
2022-12-25T05:39:07.515Z,98680.03
2022-12-25T05:41:34.735Z,98681.34
2022-12-25T05:44:01.974Z,98668.13
2022-12-25T05:46:28.426Z,98667.03
2022-12-25T05:48:54.873Z,98660.84
2022-12-25T05:51:21.358Z,98656.25
2022-12-25T05:53:48.009Z,98649.22
2022-12-25T05:56:14.417Z,98648.41
2022-12-25T05:58:40.944Z,98652.47
2022-12-25T06:01:19.869Z,98646.00
2022-12-25T06:03:46.535Z,98653.00
2022-12-25T06:06:13.526Z,98643.00
2022-12-25T06:08:40.714Z,98640.59
2022-12-25T06:11:08.442Z,98637.91
2022-12-25T06:13:35.889Z,98633.59
2022-12-25T06:16:07.076Z,98645.19
2022-12-25T06:18:43.519Z,98637.34
2022-12-25T06:23:46.013Z,98640.59
2022-12-25T06:26:16.369Z,98636.81
2022-12-25T06:28:43.643Z,98635.19
2022-12-25T06:31:17.104Z,98622.78
2022-12-25T06:36:18.143Z,98624.41
2022-12-25T06:38:44.802Z,98621.97
2022-12-25T06:41:15.371Z,98627.63
2022-12-25T06:43:41.924Z,98629.22
2022-12-25T06:46:11.760Z,98634.63
2022-12-25T06:48:46.846Z,98624.41
2022-12-25T06:51:13.811Z,98630.84
2022-12-25T06:53:41.000Z,98622.78
2022-12-25T06:56:16.259Z,98640.59
2022-12-25T06:58:48.636Z,98649.22
2022-12-25T07:01:20.768Z,98649.22
2022-12-25T07:03:50.105Z,98649.22
2022-12-25T07:06:16.664Z,98649.50
2022-12-25T07:08:43.280Z,98639.22
2022-12-25T07:11:09.831Z,98640.03
2022-12-25T07:13:36.212Z,98641.69
2022-12-25T07:16:04.638Z,98652.22
2022-12-25T07:18:32.071Z,98664.91
2022-12-25T07:21:01.387Z,98660.31
2022-12-25T07:23:27.834Z,98658.41
2022-12-25T07:25:58.357Z,98651.41
2022-12-25T07:28:25.005Z,98651.41
2022-12-25T07:30:52.156Z,98646.00
2022-12-25T07:33:18.828Z,98643.81
2022-12-25T07:35:45.293Z,98639.22
2022-12-25T07:38:12.347Z,98623.03
2022-12-25T07:40:38.969Z,98623.81
2022-12-25T07:43:05.429Z,98625.44
2022-12-25T07:45:31.931Z,98620.03
2022-12-25T07:48:04.455Z,98618.94
2022-12-25T07:50:31.898Z,98614.38
2022-12-25T07:52:58.427Z,98594.66
2022-12-25T07:55:24.972Z,98580.91
2022-12-25T07:57:52.114Z,98580.38
2022-12-25T08:00:19.174Z,98581.19
2022-12-25T08:02:45.739Z,98593.31
2022-12-25T08:05:12.434Z,98597.13
2022-12-25T08:07:38.911Z,98605.78
2022-12-25T08:10:06.138Z,98611.19
2022-12-25T08:12:32.600Z,98617.91
2022-12-25T08:14:59.005Z,98627.06
2022-12-25T08:17:25.388Z,98629.22
2022-12-25T08:19:51.859Z,98624.91
2022-12-25T08:22:18.274Z,98631.91
2022-12-25T08:24:44.954Z,98637.31
2022-12-25T08:27:11.452Z,98645.44
2022-12-25T08:29:37.902Z,98639.19
2022-12-25T08:32:04.548Z,98642.16
2022-12-25T08:34:30.977Z,98634.59
2022-12-25T08:36:57.420Z,98637.28
2022-12-25T08:39:24.608Z,98625.91
2022-12-25T08:41:51.057Z,98638.31
2022-12-25T08:44:17.586Z,98636.97
2022-12-25T08:46:44.362Z,98642.31
2022-12-25T08:49:10.890Z,98645.00
2022-12-25T08:51:37.371Z,98635.56
2022-12-25T08:54:04.029Z,98629.59
2022-12-25T08:56:30.495Z,98612.84
2022-12-25T08:58:57.198Z,98622.56
2022-12-25T09:01:23.738Z,98626.38
2022-12-25T09:03:50.365Z,98624.75
2022-12-25T09:06:17.018Z,98609.63
2022-12-25T09:08:49.314Z,98604.75
2022-12-25T09:11:17.886Z,98585.81
2022-12-25T09:13:44.485Z,98575.78
2022-12-25T09:16:18.088Z,98568.19
2022-12-25T09:18:44.849Z,98564.41
2022-12-25T09:21:13.155Z,98565.72
2022-12-25T09:23:40.274Z,98574.38
2022-12-25T09:26:10.191Z,98586.53
2022-12-25T09:28:36.954Z,98590.28
2022-12-25T09:31:04.030Z,98591.34
2022-12-25T09:33:30.552Z,98584.03
2022-12-25T09:36:00.118Z,98589.44
2022-12-25T09:38:28.274Z,98593.50
2022-12-25T09:41:16.861Z,98592.09
2022-12-25T09:44:07.224Z,98588.56
2022-12-25T09:46:41.862Z,98599.06
2022-12-25T09:49:32.969Z,98599.25
2022-12-25T09:52:05.202Z,98603.22
2022-12-25T09:54:46.577Z,98601.47
2022-12-25T09:57:14.617Z,98597.00
2022-12-25T09:59:44.247Z,98604.19
2022-12-25T10:02:29.668Z,98589.66
2022-12-25T10:05:50.560Z,98596.47
2022-12-25T10:08:58.331Z,98600.66
2022-12-25T10:11:39.971Z,98588.22
2022-12-25T10:14:12.351Z,98586.94
2022-12-25T10:17:08.406Z,98576.19
2022-12-25T10:20:02.965Z,98571.13
2022-12-25T10:22:38.073Z,98565.84
2022-12-25T10:25:07.032Z,98568.16
2022-12-25T10:27:42.751Z,98570.44
2022-12-25T10:30:15.966Z,98563.53
2022-12-25T10:32:44.144Z,98557.91
2022-12-25T10:35:17.047Z,98561.28
2022-12-25T10:37:46.451Z,98548.41
2022-12-25T10:40:46.397Z,98527.19
2022-12-25T11:15:55.109Z,98482.59
2022-12-25T11:25:23.419Z,98478.66
2022-12-25T11:28:51.964Z,98479.53
2022-12-25T11:34:57.015Z,98466.53
2022-12-25T11:37:41.887Z,98462.19
2022-12-25T11:40:45.311Z,98460.59
2022-12-25T11:43:43.978Z,98455.94
2022-12-25T11:50:32.829Z,98454.09
2022-12-25T11:55:49.980Z,98439.88
2022-12-25T11:58:25.969Z,98446.47
2022-12-25T12:01:01.659Z,98441.84
2022-12-25T12:03:45.020Z,98437.75
2022-12-25T12:06:59.950Z,98441.91
2022-12-25T12:10:17.123Z,98426.88
2022-12-25T12:13:03.756Z,98418.69
2022-12-25T12:20:55.964Z,98391.94
2022-12-25T12:24:48.916Z,98390.44
2022-12-25T12:28:51.415Z,98377.16
2022-12-25T12:32:26.081Z,98380.66
2022-12-25T12:49:35.835Z,98387.13
2022-12-25T12:52:24.263Z,98390.97
2022-12-25T13:05:00.181Z,98377.44
2022-12-25T13:19:10.137Z,98353.19
2022-12-25T13:22:08.548Z,98351.72
2022-12-25T13:24:45.094Z,98351.56
2022-12-25T13:27:41.997Z,98350.41
2022-12-25T13:30:22.306Z,98361.00
2022-12-25T13:36:42.361Z,98372.19
2022-12-25T13:39:32.887Z,98375.75
2022-12-25T13:42:06.197Z,98373.19
2022-12-25T13:45:02.287Z,98376.56
2022-12-25T13:47:37.992Z,98369.84
2022-12-25T13:50:23.351Z,98373.84
2022-12-25T13:53:33.924Z,98362.97
2022-12-25T13:59:37.248Z,98359.19
2022-12-25T14:02:20.817Z,98357.06
2022-12-25T14:05:42.702Z,98352.97
2022-12-25T14:08:41.318Z,98348.31
2022-12-25T14:11:09.235Z,98346.84
2022-12-25T14:13:40.810Z,98342.50
2022-12-25T14:16:41.109Z,98343.50
2022-12-25T14:22:37.759Z,98346.81
2022-12-25T14:25:49.412Z,98352.69
2022-12-25T14:28:32.629Z,98340.66
2022-12-25T14:31:07.977Z,98343.81
2022-12-25T14:34:02.985Z,98339.72
2022-12-25T14:36:38.239Z,98341.13
2022-12-25T14:42:25.826Z,98334.44
2022-12-25T14:45:08.121Z,98333.25
2022-12-25T14:48:04.865Z,98346.47
2022-12-25T14:50:46.249Z,98345.78
2022-12-25T14:53:49.392Z,98344.81
2022-12-25T14:56:59.639Z,98334.53
2022-12-25T15:06:31.652Z,98342.81
2022-12-25T15:06:36.311Z,98344.22
2022-12-25T15:26:56.241Z,98345.44
2022-12-25T15:46:15.697Z,98340.25
2022-12-25T15:49:21.424Z,98341.94
2022-12-25T15:52:12.627Z,98337.22
2022-12-25T15:54:51.512Z,98347.66
2022-12-25T15:57:36.241Z,98355.09
2022-12-25T16:00:12.144Z,98348.84
2022-12-25T16:24:33.033Z,98393.09
2022-12-25T16:34:42.402Z,98391.59
2022-12-25T16:45:02.324Z,98388.88
2022-12-25T17:01:51.282Z,98408.41
2022-12-25T17:04:45.769Z,98403.38
2022-12-25T17:13:57.036Z,98391.91
2022-12-25T17:17:27.954Z,98379.66
2022-12-25T17:20:30.848Z,98388.47
2022-12-25T17:32:13.824Z,98391.34
2022-12-25T17:40:39.437Z,98398.69
2022-12-25T17:42:59.953Z,98408.44
2022-12-25T17:57:12.383Z,98426.13
2022-12-25T18:00:15.811Z,98422.00
2022-12-25T18:02:27.949Z,98421.91
2022-12-25T18:03:21.958Z,98426.50
2022-12-25T18:09:21.903Z,98432.94
2022-12-25T18:15:23.958Z,98433.25
2022-12-25T18:28:59.407Z,98455.22
2022-12-25T18:32:10.104Z,98445.75
2022-12-25T18:38:16.435Z,98450.09
2022-12-25T18:41:36.882Z,98454.22
2022-12-25T18:44:19.913Z,98450.94
2022-12-25T18:47:08.951Z,98441.09
2022-12-25T18:53:50.338Z,98452.84
2022-12-25T18:57:10.180Z,98444.44
2022-12-25T18:59:45.421Z,98457.22
2022-12-25T19:02:57.568Z,98456.97
2022-12-25T19:06:15.696Z,98462.22
2022-12-25T19:12:48.158Z,98472.81
2022-12-25T19:15:33.290Z,98472.03
2022-12-25T19:18:32.475Z,98465.78
2022-12-25T19:21:37.819Z,98460.16
2022-12-25T19:24:20.616Z,98478.63
2022-12-25T19:34:46.001Z,98477.47
2022-12-25T19:38:09.564Z,98480.97
2022-12-25T19:47:07.222Z,98475.34
2022-12-25T19:56:54.088Z,98467.72
2022-12-25T20:08:11.196Z,98479.75
2022-12-25T20:18:39.612Z,98488.09
2022-12-25T20:44:19.697Z,98485.91
2022-12-25T20:45:52.843Z,98486.25
2022-12-25T20:50:10.895Z,98496.44
2022-12-25T20:54:11.889Z,98492.38
2022-12-25T20:57:21.404Z,98495.28
2022-12-25T21:11:39.226Z,98502.19
2022-12-25T21:20:29.352Z,98501.66
2022-12-25T21:20:52.542Z,98502.56
2022-12-25T21:22:55.779Z,98501.66
2022-12-25T21:25:22.259Z,98497.28
2022-12-25T21:27:48.748Z,98495.09
2022-12-25T21:30:16.090Z,98490.75
2022-12-25T21:33:01.021Z,98488.84
2022-12-25T21:35:27.531Z,98492.03
2022-12-25T21:37:54.138Z,98487.44
2022-12-25T21:40:20.542Z,98491.47
2022-12-25T21:42:46.918Z,98482.75
2022-12-25T21:45:13.324Z,98484.88
2022-12-25T21:48:02.347Z,98486.13
2022-12-25T21:50:44.564Z,98492.78
2022-12-25T21:53:18.541Z,98502.97
2022-12-25T21:55:58.755Z,98500.13
2022-12-25T21:58:25.272Z,98501.34
2022-12-25T22:00:52.004Z,98503.38
2022-12-25T22:03:18.622Z,98508.75
2022-12-25T22:06:03.793Z,98501.09
2022-12-25T22:08:34.883Z,98513.25
2022-12-25T22:11:04.574Z,98520.00
2022-12-25T22:13:49.586Z,98516.13
2022-12-25T22:16:34.640Z,98512.88
2022-12-25T22:19:19.452Z,98513.69
2022-12-25T22:21:55.381Z,98514.72
2022-12-25T22:25:45.568Z,98519.34
2022-12-25T22:28:06.097Z,98522.53
2022-12-25T22:34:22.813Z,98520.97
2022-12-25T22:37:15.551Z,98519.00
2022-12-25T22:44:24.480Z,98525.34
2022-12-25T22:47:01.266Z,98520.22
2022-12-25T22:49:41.159Z,98526.94
2022-12-25T22:52:43.868Z,98523.22
2022-12-25T22:58:27.743Z,98523.19
2022-12-25T23:14:38.297Z,98560.63
2022-12-25T23:21:05.853Z,98569.41
2022-12-25T23:23:50.838Z,98575.44
2022-12-25T23:26:20.367Z,98583.63
2022-12-25T23:29:05.441Z,98584.59
2022-12-25T23:31:35.585Z,98587.97
2022-12-25T23:34:03.780Z,98580.47
2022-12-25T23:36:30.160Z,98583.25
2022-12-25T23:38:58.271Z,98575.19
2022-12-25T23:41:27.627Z,98574.44
2022-12-25T23:43:54.010Z,98586.97
2022-12-25T23:46:20.520Z,98590.19
2022-12-25T23:48:47.590Z,98594.00
2022-12-25T23:51:13.945Z,98591.88
2022-12-25T23:53:40.453Z,98594.34
2022-12-25T23:56:07.011Z,98589.22
2022-12-25T23:58:33.452Z,98572.72
